createdAt,value
2018-09-15T00:01:00.651Z,16.07
2018-09-15T00:03:28.810Z,15.87
2018-09-15T00:05:57.042Z,15.97
2018-09-15T00:08:25.213Z,12.37
2018-09-15T00:10:53.383Z,15.23
2018-09-15T00:13:22.523Z,13.20
2018-09-15T00:15:50.703Z,11.40
2018-09-15T00:18:19.013Z,11.40
2018-09-15T00:20:47.222Z,24.37
2018-09-15T00:23:15.446Z,13.03
2018-09-15T00:25:43.650Z,20.53
2018-09-15T00:28:12.473Z,17.67
2018-09-15T00:30:41.129Z,15.53
2018-09-15T00:33:09.294Z,14.77
2018-09-15T00:35:37.514Z,17.47
2018-09-15T00:38:05.784Z,12.97
2018-09-15T00:40:34.019Z,14.67
2018-09-15T00:43:02.215Z,14.03
2018-09-15T00:45:30.426Z,18.47
2018-09-15T00:47:58.626Z,20.27
2018-09-15T00:50:26.834Z,13.73
2018-09-15T00:52:55.046Z,13.00
2018-09-15T00:55:23.259Z,17.03
2018-09-15T00:57:51.458Z,30.10
2018-09-15T01:00:20.537Z,20.57
2018-09-15T01:02:48.705Z,16.90
2018-09-15T01:05:16.891Z,17.30
2018-09-15T01:07:45.089Z,13.50
2018-09-15T01:10:13.250Z,19.00
2018-09-15T01:12:41.427Z,28.53
2018-09-15T01:15:09.594Z,13.10
2018-09-15T01:17:37.790Z,13.80
2018-09-15T01:20:05.948Z,11.60
2018-09-15T01:22:34.114Z,17.20
2018-09-15T01:25:02.282Z,18.90
2018-09-15T01:27:30.479Z,15.60
2018-09-15T01:29:58.637Z,16.20
2018-09-15T01:32:28.035Z,13.40
2018-09-15T01:34:56.739Z,33.77
2018-09-15T01:37:25.062Z,14.00
2018-09-15T01:39:53.214Z,16.10
2018-09-15T01:42:21.438Z,14.10
2018-09-15T01:44:49.609Z,14.70
2018-09-15T01:47:17.790Z,12.73
2018-09-15T01:49:45.959Z,15.70
2018-09-15T01:52:14.122Z,13.27
2018-09-15T01:54:42.310Z,19.53
2018-09-15T01:57:10.594Z,14.20
2018-09-15T01:59:38.861Z,14.03
2018-09-15T02:02:07.030Z,15.23
2018-09-15T02:04:35.207Z,11.33
2018-09-15T02:07:03.391Z,14.93
2018-09-15T02:09:31.534Z,15.63
2018-09-15T02:11:59.703Z,13.10
2018-09-15T02:14:27.886Z,11.67
2018-09-15T02:16:56.076Z,15.00
2018-09-15T02:19:24.225Z,15.60
2018-09-15T02:21:52.579Z,10.43
2018-09-15T02:24:20.734Z,25.70
2018-09-15T02:26:48.902Z,16.90
2018-09-15T02:29:17.118Z,10.47
2018-09-15T02:31:45.291Z,12.90
2018-09-15T02:34:13.434Z,19.57
2018-09-15T02:36:41.585Z,14.73
2018-09-15T02:39:10.191Z,20.07
2018-09-15T02:41:38.362Z,15.27
2018-09-15T02:44:06.512Z,11.80
2018-09-15T02:46:34.661Z,23.97
2018-09-15T02:49:02.802Z,18.10
2018-09-15T02:51:32.426Z,18.00
2018-09-15T02:54:00.563Z,13.70
2018-09-15T02:56:28.710Z,15.00
2018-09-15T02:58:56.871Z,19.47
2018-09-15T03:01:25.026Z,19.77
2018-09-15T03:03:53.179Z,22.70
2018-09-15T03:06:21.319Z,20.70
2018-09-15T03:08:49.464Z,14.03
2018-09-15T03:11:17.980Z,12.53
2018-09-15T03:13:46.161Z,14.87
2018-09-15T03:16:14.317Z,18.20
2018-09-15T03:18:42.465Z,17.47
2018-09-15T03:21:10.609Z,28.80
2018-09-15T03:23:38.770Z,20.07
2018-09-15T03:26:06.946Z,30.23
2018-09-15T03:28:35.407Z,23.70
2018-09-15T03:31:03.616Z,25.10
2018-09-15T03:33:31.767Z,24.10
2018-09-15T03:35:59.934Z,31.97
2018-09-15T03:38:28.109Z,27.80
2018-09-15T03:40:56.283Z,18.80
2018-09-15T03:43:24.490Z,29.00
2018-09-15T03:45:52.664Z,32.60
2018-09-15T03:48:20.830Z,18.63
2018-09-15T03:50:48.991Z,18.43
2018-09-15T03:53:17.166Z,18.00
2018-09-15T03:55:45.326Z,20.13
2018-09-15T03:58:13.526Z,22.40
2018-09-15T04:00:41.666Z,21.70
2018-09-15T04:03:09.827Z,22.93
2018-09-15T04:05:37.970Z,26.60
2018-09-15T04:08:06.119Z,23.70
2018-09-15T04:10:34.263Z,16.90
2018-09-15T04:13:02.420Z,19.50
2018-09-15T04:15:30.567Z,19.17
2018-09-15T04:17:58.739Z,15.80
2018-09-15T04:20:26.874Z,23.27
2018-09-15T04:22:55.024Z,19.93
2018-09-15T04:25:23.173Z,21.13
2018-09-15T04:27:51.334Z,28.23
2018-09-15T04:30:19.497Z,20.87
2018-09-15T04:32:47.646Z,18.87
2018-09-15T04:35:15.821Z,31.20
2018-09-15T04:37:43.995Z,24.87
2018-09-15T04:40:12.162Z,25.17
2018-09-15T04:42:40.326Z,27.90
2018-09-15T04:45:08.491Z,26.80
2018-09-15T04:47:36.655Z,30.40
2018-09-15T04:50:05.068Z,29.57
2018-09-15T04:52:33.262Z,31.57
2018-09-15T04:55:01.406Z,36.57
2018-09-15T04:57:30.020Z,39.33
2018-09-15T04:59:58.198Z,37.60
2018-09-15T05:02:26.553Z,47.47
2018-09-15T05:04:56.549Z,44.50
2018-09-15T05:07:24.830Z,50.87
2018-09-15T05:09:53.002Z,51.23
2018-09-15T05:12:21.301Z,46.37
2018-09-15T05:14:49.418Z,48.70
2018-09-15T05:17:17.582Z,44.73
2018-09-15T05:19:45.751Z,49.17
2018-09-15T05:22:13.907Z,45.30
2018-09-15T05:24:42.073Z,55.93
2018-09-15T05:27:10.237Z,52.63
2018-09-15T05:29:38.416Z,44.70
2018-09-15T05:32:06.598Z,55.03
2018-09-15T05:34:34.846Z,51.50
2018-09-15T05:37:03.063Z,60.63
2018-09-15T05:39:31.210Z,45.40
2018-09-15T05:41:59.354Z,49.80
2018-09-15T05:44:27.501Z,59.40
2018-09-15T05:46:55.649Z,45.83
2018-09-15T05:49:23.806Z,52.80
2018-09-15T05:51:52.051Z,54.07
2018-09-15T05:54:20.238Z,49.37
2018-09-15T05:56:48.394Z,55.90
2018-09-15T05:59:16.542Z,52.03
2018-09-15T06:01:44.732Z,44.90
2018-09-15T06:04:12.862Z,49.37
2018-09-15T06:06:41.117Z,52.03
2018-09-15T06:09:10.563Z,57.33
2018-09-15T06:11:38.722Z,55.20
2018-09-15T06:14:06.890Z,53.60
2018-09-15T06:16:35.119Z,56.40
2018-09-15T06:19:03.562Z,59.87
2018-09-15T06:21:31.758Z,57.97
2018-09-15T06:23:59.962Z,55.27
2018-09-15T06:26:28.462Z,53.10
2018-09-15T06:28:56.626Z,56.00
2018-09-15T06:31:24.771Z,54.90
2018-09-15T06:33:52.946Z,51.37
2018-09-15T06:36:21.165Z,51.17
2018-09-15T06:38:49.287Z,57.80
2018-09-15T06:41:17.533Z,58.00
2018-09-15T06:43:45.684Z,47.63
2018-09-15T06:46:13.942Z,50.57
2018-09-15T06:48:42.106Z,55.90
2018-09-15T06:51:10.671Z,55.20
2018-09-15T06:53:38.930Z,63.37
2018-09-15T06:56:07.237Z,56.67
2018-09-15T06:58:35.401Z,53.40
2018-09-15T07:01:03.570Z,45.10
2018-09-15T07:03:31.738Z,60.70
2018-09-15T07:05:59.922Z,46.03
2018-09-15T07:08:28.087Z,48.43
2018-09-15T07:10:56.266Z,45.17
2018-09-15T07:13:24.433Z,41.60
2018-09-15T07:15:52.633Z,40.70
2018-09-15T07:18:20.803Z,43.00
2018-09-15T07:20:48.978Z,44.67
2018-09-15T07:23:17.146Z,43.23
2018-09-15T07:25:45.361Z,33.43
2018-09-15T07:28:13.540Z,37.10
2018-09-15T07:30:41.706Z,43.23
2018-09-15T07:33:09.879Z,35.93
2018-09-15T07:35:38.034Z,38.43
2018-09-15T07:38:06.186Z,37.97
2018-09-15T07:40:34.351Z,31.30
2018-09-15T07:43:02.505Z,41.60
2018-09-15T07:45:30.663Z,34.93
2018-09-15T07:47:58.811Z,46.33
2018-09-15T07:50:26.979Z,34.47
2018-09-15T07:52:55.124Z,36.13
2018-09-15T07:55:23.328Z,32.93
2018-09-15T07:57:51.668Z,35.30
2018-09-15T08:00:19.682Z,32.67
2018-09-15T08:02:47.838Z,30.30
2018-09-15T08:05:16.008Z,33.50
2018-09-15T08:07:44.178Z,29.27
2018-09-15T08:10:12.322Z,31.27
2018-09-15T08:12:40.514Z,25.70
2018-09-15T08:15:08.678Z,22.70
2018-09-15T08:17:36.846Z,21.02
2018-09-15T08:20:05.015Z,24.13
2018-09-15T08:22:33.166Z,22.85
2018-09-15T08:25:01.365Z,24.65
2018-09-15T08:27:29.603Z,22.70
2018-09-15T08:29:57.702Z,25.12
2018-09-15T08:32:25.854Z,21.17
2018-09-15T08:34:54.058Z,23.10
2018-09-15T08:37:22.229Z,26.25
2018-09-15T08:39:50.383Z,18.10
2018-09-15T08:42:18.536Z,23.40
2018-09-15T08:44:46.678Z,21.37
2018-09-15T08:47:14.864Z,19.20
2018-09-15T08:49:43.023Z,19.55
2018-09-15T08:52:11.197Z,19.82
2018-09-15T08:54:39.358Z,20.75
2018-09-15T08:57:07.509Z,15.90
2018-09-15T08:59:35.698Z,17.63
2018-09-15T09:02:03.853Z,21.42
2018-09-15T09:04:32.023Z,18.42
2018-09-15T09:07:00.211Z,19.12
2018-09-15T09:09:28.376Z,15.72
2018-09-15T09:11:56.533Z,17.30
2018-09-15T09:14:24.683Z,17.25
2018-09-15T09:16:52.855Z,16.25
2018-09-15T09:19:21.026Z,14.75
2018-09-15T09:21:49.175Z,15.23
2018-09-15T09:24:17.339Z,14.80
2018-09-15T09:26:45.524Z,17.90
2018-09-15T09:29:13.671Z,17.27
2018-09-15T09:31:41.812Z,13.77
2018-09-15T09:34:10.939Z,15.23
2018-09-15T09:39:09.066Z,17.77
2018-09-15T09:41:37.295Z,19.90
2018-09-15T09:44:05.534Z,16.73
2018-09-15T09:46:34.074Z,15.13
2018-09-15T09:49:02.242Z,14.50
2018-09-15T09:51:30.413Z,16.10
2018-09-15T09:53:58.620Z,20.23
2018-09-15T09:56:26.786Z,17.60
2018-09-15T09:58:55.004Z,16.50
2018-09-15T10:01:23.352Z,30.83
2018-09-15T10:03:51.788Z,12.73
2018-09-15T10:06:19.950Z,13.43
2018-09-15T10:08:48.123Z,17.50
2018-09-15T10:11:16.287Z,16.80
2018-09-15T10:13:44.447Z,11.47
2018-09-15T10:16:12.688Z,15.63
2018-09-15T10:18:40.809Z,11.90
2018-09-15T10:21:08.991Z,14.13
2018-09-15T10:23:37.202Z,14.83
2018-09-15T10:26:05.385Z,13.73
2018-09-15T10:28:33.541Z,11.87
2018-09-15T10:31:01.758Z,13.23
2018-09-15T10:33:29.965Z,15.85
2018-09-15T10:35:58.173Z,9.93
2018-09-15T10:45:48.761Z,12.53
2018-09-15T10:48:16.920Z,20.77
2018-09-15T10:50:45.106Z,13.45
2018-09-15T10:53:13.278Z,10.72
2018-09-15T10:55:41.449Z,13.70
2018-09-15T10:58:09.638Z,16.33
2018-09-15T11:00:37.806Z,12.58
2018-09-15T11:03:06.079Z,12.30
2018-09-15T11:05:34.274Z,9.40
2018-09-15T11:08:02.455Z,11.93
2018-09-15T11:10:30.634Z,11.73
2018-09-15T11:12:58.822Z,8.00
2018-09-15T11:15:27.005Z,8.03
2018-09-15T11:17:55.151Z,9.10
2018-09-15T11:20:23.310Z,8.60
2018-09-15T11:30:13.958Z,21.43
2018-09-15T11:32:42.122Z,17.40
2018-09-15T11:35:10.271Z,9.57
2018-09-15T11:37:38.413Z,11.00
2018-09-15T11:40:06.565Z,17.63
2018-09-15T11:42:34.789Z,12.90
2018-09-15T11:45:02.938Z,7.70
2018-09-15T11:47:31.089Z,19.70
2018-09-15T11:49:59.246Z,13.60
2018-09-15T11:52:27.678Z,8.10
2018-09-15T11:54:55.818Z,8.13
2018-09-15T11:57:23.974Z,6.87
2018-09-15T11:59:52.145Z,13.50
2018-09-15T12:02:26.634Z,8.43
2018-09-15T12:04:54.816Z,18.40
2018-09-15T12:07:22.973Z,10.35
2018-09-15T12:09:51.109Z,9.90
2018-09-15T12:12:19.300Z,9.23
2018-09-15T12:14:47.784Z,9.20
2018-09-15T12:17:15.926Z,12.53
2018-09-15T12:19:44.112Z,6.07
2018-09-15T12:22:12.274Z,7.03
2018-09-15T12:24:40.421Z,9.68
2018-09-15T12:27:08.575Z,5.30
2018-09-15T12:29:36.736Z,4.97
2018-09-15T12:32:04.901Z,8.25
2018-09-15T12:34:33.107Z,5.67
2018-09-15T12:37:01.291Z,7.72
2018-09-15T12:39:29.554Z,7.23
2018-09-15T12:41:57.781Z,9.80
2018-09-15T12:44:26.411Z,12.50
2018-09-15T12:46:54.592Z,12.40
2018-09-15T12:49:22.768Z,6.20
2018-09-15T12:51:51.008Z,10.15
2018-09-15T12:54:19.425Z,15.68
2018-09-15T12:56:47.607Z,7.53
2018-09-15T12:59:15.778Z,8.10
2018-09-15T13:01:44.049Z,6.50
2018-09-15T13:04:12.261Z,9.83
2018-09-15T13:06:40.457Z,10.82
2018-09-15T13:09:10.268Z,5.43
2018-09-15T13:11:38.602Z,7.45
2018-09-15T13:14:07.038Z,5.40
2018-09-15T13:16:35.217Z,4.62
2018-09-15T13:19:03.495Z,5.60
2018-09-15T13:21:31.805Z,8.30
2018-09-15T13:23:59.991Z,5.75
2018-09-15T13:26:28.153Z,5.10
2018-09-15T13:28:56.778Z,4.80
2018-09-15T13:31:24.959Z,6.15
2018-09-15T13:33:53.141Z,5.77
2018-09-15T13:36:21.338Z,5.60
2018-09-15T13:38:49.519Z,4.22
2018-09-15T13:41:17.655Z,14.95
2018-09-15T13:43:45.815Z,7.42
2018-09-15T13:46:13.978Z,4.40
2018-09-15T13:48:42.125Z,4.42
2018-09-15T13:51:10.304Z,5.03
2018-09-15T13:53:38.470Z,4.22
2018-09-15T13:56:06.650Z,4.10
2018-09-15T13:58:34.797Z,6.85
2018-09-15T14:01:02.954Z,8.60
2018-09-15T14:03:31.154Z,4.25
2018-09-15T14:05:59.285Z,5.65
2018-09-15T14:08:27.438Z,6.40
2018-09-15T14:10:55.624Z,3.90
2018-09-15T14:13:23.769Z,3.92
2018-09-15T14:15:51.924Z,6.67
2018-09-15T14:18:20.100Z,4.35
2018-09-15T14:20:48.255Z,4.17
2018-09-15T14:23:16.410Z,4.50
2018-09-15T14:25:44.554Z,4.37
2018-09-15T14:28:12.743Z,4.80
2018-09-15T14:30:40.857Z,4.00
2018-09-15T14:33:09.002Z,4.12
2018-09-15T14:35:37.310Z,10.03
2018-09-15T14:38:05.486Z,5.92
2018-09-15T14:40:33.657Z,4.80
2018-09-15T14:43:01.831Z,8.43
2018-09-15T14:45:29.999Z,4.87
2018-09-15T14:47:58.201Z,13.00
2018-09-15T14:50:26.357Z,7.67
2018-09-15T14:52:54.502Z,6.30
2018-09-15T14:55:22.704Z,8.37
2018-09-15T14:57:50.825Z,6.37
2018-09-15T15:00:18.985Z,3.70
2018-09-15T15:02:50.746Z,5.70
2018-09-15T15:05:18.930Z,3.50
2018-09-15T15:07:47.582Z,7.40
2018-09-15T15:10:15.689Z,4.53
2018-09-15T15:12:43.855Z,6.70
2018-09-15T15:15:12.053Z,3.63
2018-09-15T15:17:40.169Z,3.47
2018-09-15T15:20:08.338Z,3.80
2018-09-15T15:22:36.511Z,3.60
2018-09-15T15:25:05.347Z,3.90
2018-09-15T15:27:33.498Z,5.13
2018-09-15T15:30:01.670Z,7.70
2018-09-15T15:32:29.849Z,5.17
2018-09-15T15:34:57.987Z,3.30
2018-09-15T15:37:26.135Z,9.70
2018-09-15T15:39:54.305Z,3.40
2018-09-15T15:42:22.580Z,3.30
2018-09-15T15:44:50.687Z,3.57
2018-09-15T15:47:18.876Z,4.50
2018-09-15T15:49:47.610Z,4.97
2018-09-15T15:52:15.747Z,4.03
2018-09-15T15:54:43.908Z,3.53
2018-09-15T15:57:12.230Z,3.63
2018-09-15T15:59:40.387Z,2.50
2018-09-15T16:02:08.547Z,4.03
2018-09-15T16:04:36.724Z,4.63
2018-09-15T16:07:04.874Z,3.03
2018-09-15T16:09:33.058Z,6.03
2018-09-15T16:12:01.233Z,4.57
2018-09-15T16:14:29.462Z,2.67
2018-09-15T16:16:57.716Z,2.93
2018-09-15T16:19:25.835Z,3.23
2018-09-15T16:21:53.990Z,7.67
2018-09-15T16:24:22.170Z,8.00
2018-09-15T16:26:50.337Z,14.73
2018-09-15T16:29:18.515Z,2.90
2018-09-15T16:31:46.679Z,4.20
2018-09-15T16:34:14.844Z,5.00
2018-09-15T16:36:42.988Z,8.13
2018-09-15T16:39:12.424Z,4.53
2018-09-15T16:41:40.550Z,12.93
2018-09-15T16:44:08.682Z,4.33
2018-09-15T16:46:36.995Z,3.40
2018-09-15T16:49:05.860Z,5.67
2018-09-15T16:51:33.991Z,3.80
2018-09-15T16:54:02.139Z,11.23
2018-09-15T16:56:30.274Z,3.13
2018-09-15T16:58:58.403Z,3.73
2018-09-15T17:01:26.566Z,4.70
2018-09-15T17:03:54.712Z,34.10
2018-09-15T17:06:22.866Z,3.47
2018-09-15T17:08:50.997Z,5.70
2018-09-15T17:11:19.137Z,4.07
2018-09-15T17:13:47.330Z,4.30
2018-09-15T17:16:15.505Z,5.70
2018-09-15T17:18:43.658Z,5.23
2018-09-15T17:21:11.798Z,6.13
2018-09-15T17:23:39.961Z,3.90
2018-09-15T17:26:08.140Z,3.50
2018-09-15T17:28:36.255Z,4.57
2018-09-15T17:31:04.421Z,4.27
2018-09-15T17:33:32.535Z,18.13
2018-09-15T17:36:00.699Z,7.03
2018-09-15T17:38:28.862Z,12.77
2018-09-15T17:40:57.023Z,6.90
2018-09-15T17:43:25.178Z,5.53
2018-09-15T17:45:55.663Z,4.30
2018-09-15T17:48:23.949Z,6.47
2018-09-15T17:50:52.106Z,6.27
2018-09-15T17:53:20.274Z,4.03
2018-09-15T17:55:48.443Z,6.23
2018-09-15T17:58:16.898Z,5.40
2018-09-15T18:00:45.075Z,11.40
2018-09-15T18:03:13.229Z,4.53
2018-09-15T18:05:41.400Z,7.73
2018-09-15T18:08:09.563Z,5.10
2018-09-15T18:10:37.714Z,4.30
2018-09-15T18:13:05.929Z,6.07
2018-09-15T18:15:34.087Z,4.57
2018-09-15T18:18:02.256Z,6.80
2018-09-15T18:20:30.410Z,5.53
2018-09-15T18:22:58.570Z,4.23
2018-09-15T18:25:26.745Z,13.03
2018-09-15T18:27:54.891Z,7.03
2018-09-15T18:30:23.050Z,7.07
2018-09-15T18:32:51.223Z,10.23
2018-09-15T18:35:19.386Z,4.50
2018-09-15T18:37:47.544Z,10.30
2018-09-15T18:40:15.670Z,4.63
2018-09-15T18:42:43.822Z,5.23
2018-09-15T18:45:11.926Z,5.17
2018-09-15T18:47:40.081Z,8.43
2018-09-15T18:50:08.194Z,4.93
2018-09-15T18:52:36.339Z,4.80
2018-09-15T18:55:04.568Z,7.03
2018-09-15T18:57:32.711Z,6.07
2018-09-15T19:00:00.852Z,6.57
2018-09-15T19:02:28.994Z,6.47
2018-09-15T19:04:57.134Z,4.70
2018-09-15T19:07:25.278Z,5.57
2018-09-15T19:09:53.407Z,8.50
2018-09-15T19:12:21.533Z,6.30
2018-09-15T19:14:49.726Z,5.40
2018-09-15T19:17:17.816Z,7.57
2018-09-15T19:19:45.950Z,13.27
2018-09-15T19:22:14.091Z,5.13
2018-09-15T19:24:42.222Z,9.80
2018-09-15T19:27:10.365Z,5.40
2018-09-15T19:29:38.490Z,10.20
2018-09-15T19:32:06.673Z,12.43
2018-09-15T19:34:34.839Z,5.10
2018-09-15T19:37:02.986Z,5.50
2018-09-15T19:39:31.114Z,16.23
2018-09-15T19:41:59.259Z,5.13
2018-09-15T19:44:27.425Z,5.70
2018-09-15T19:46:55.550Z,7.07
2018-09-15T19:49:23.688Z,9.17
2018-09-15T19:51:51.827Z,5.53
2018-09-15T19:54:19.980Z,6.40
2018-09-15T19:56:48.126Z,5.80
2018-09-15T19:59:16.331Z,6.70
2018-09-15T20:01:44.418Z,7.33
2018-09-15T20:04:12.738Z,7.37
2018-09-15T20:06:40.877Z,7.53
2018-09-15T20:09:09.994Z,6.67
2018-09-15T20:11:38.127Z,7.70
2018-09-15T20:14:07.007Z,6.93
2018-09-15T20:16:34.214Z,5.90
2018-09-15T20:19:01.414Z,11.80
2018-09-15T20:21:28.578Z,11.33
2018-09-15T20:23:56.731Z,17.33
2018-09-15T20:26:24.884Z,18.63
2018-09-15T20:28:53.051Z,16.83
2018-09-15T20:31:21.210Z,14.60
2018-09-15T20:33:49.409Z,13.97
2018-09-15T20:36:17.573Z,19.00
2018-09-15T20:38:45.746Z,12.27
2018-09-15T20:41:13.902Z,14.50
2018-09-15T20:43:42.065Z,11.80
2018-09-15T20:46:10.214Z,13.20
2018-09-15T20:48:38.382Z,9.73
2018-09-15T20:51:06.563Z,14.30
2018-09-15T20:53:34.726Z,9.77
2018-09-15T20:56:02.901Z,10.23
2018-09-15T20:58:31.102Z,10.50
2018-09-15T21:00:59.255Z,8.57
2018-09-15T21:03:27.424Z,9.30
2018-09-15T21:05:55.586Z,9.00
2018-09-15T21:08:23.758Z,6.53
2018-09-15T21:10:51.922Z,7.63
2018-09-15T21:13:20.079Z,6.50
2018-09-15T21:15:48.248Z,6.17
2018-09-15T21:18:16.431Z,7.10
2018-09-15T21:20:44.591Z,8.20
2018-09-15T21:23:12.729Z,8.73
2018-09-15T21:25:40.886Z,5.10
2018-09-15T21:28:09.041Z,5.33
2018-09-15T21:30:37.201Z,19.07
2018-09-15T21:33:05.485Z,4.90
2018-09-15T21:35:33.625Z,5.87
2018-09-15T21:38:01.786Z,7.23
2018-09-15T21:40:29.926Z,5.90
2018-09-15T21:42:58.047Z,8.90
2018-09-15T21:45:26.192Z,7.00
2018-09-15T21:47:55.147Z,10.50
2018-09-15T21:50:23.301Z,6.33
2018-09-15T21:52:51.491Z,10.47
2018-09-15T21:55:19.719Z,6.30
2018-09-15T21:57:47.841Z,6.93
2018-09-15T22:00:15.984Z,12.40
2018-09-15T22:02:44.132Z,14.90
2018-09-15T22:05:12.278Z,6.07
2018-09-15T22:07:40.423Z,20.33
2018-09-15T22:10:08.560Z,7.03
2018-09-15T22:12:36.686Z,6.70
2018-09-15T22:15:04.829Z,15.70
2018-09-15T22:17:32.977Z,7.10
2018-09-15T22:20:01.111Z,10.13
2018-09-15T22:22:29.296Z,10.60
2018-09-15T22:24:57.380Z,8.57
2018-09-15T22:27:25.502Z,7.00
2018-09-15T22:29:53.650Z,21.33
2018-09-15T22:32:21.776Z,6.70
2018-09-15T22:34:49.927Z,17.77
2018-09-15T22:37:18.075Z,14.73
2018-09-15T22:39:46.211Z,7.93
2018-09-15T22:42:14.349Z,8.23
2018-09-15T22:44:42.495Z,10.93
2018-09-15T22:47:10.617Z,6.37
2018-09-15T22:49:38.763Z,23.03
2018-09-15T22:52:06.890Z,6.17
2018-09-15T22:54:35.036Z,7.13
2018-09-15T22:57:03.169Z,12.20
2018-09-15T22:59:31.358Z,9.63
2018-09-15T23:01:59.548Z,8.23
2018-09-15T23:04:27.708Z,5.80
2018-09-15T23:06:55.831Z,6.60
2018-09-15T23:09:23.976Z,6.47
2018-09-15T23:11:52.115Z,5.17
2018-09-15T23:14:20.255Z,9.73
2018-09-15T23:16:48.397Z,11.47
2018-09-15T23:19:16.577Z,9.70
2018-09-15T23:21:44.710Z,7.50
2018-09-15T23:24:12.846Z,5.70
2018-09-15T23:26:40.992Z,6.03
2018-09-15T23:29:09.120Z,16.73
2018-09-15T23:31:37.254Z,7.70
2018-09-15T23:34:05.393Z,6.23
2018-09-15T23:36:33.522Z,5.60
2018-09-15T23:39:01.658Z,5.33
2018-09-15T23:41:29.806Z,6.30
2018-09-15T23:43:57.935Z,5.83
2018-09-15T23:46:26.079Z,8.70
2018-09-15T23:48:54.264Z,9.27
2018-09-15T23:51:22.411Z,6.67
2018-09-15T23:53:50.546Z,6.30
2018-09-15T23:56:18.682Z,8.63
2018-09-15T23:58:46.823Z,9.33
